Rafael Nuñez International Airport
SKCG : now visible

Airfield :











YOU CAN JOIN US ON...

 
LOGIN :

Register | Disclaimer

   EN    FR    IT 

 









Legend :    VFR   Marginal VFR   IFR   Intensive IFR   Very Intensive IFR
Visi :
Ceiling :
>= 8 km
>= 3000ft
5 to 8 km
1000 to 3000 ft
1500m to 5 km
500 to 1000 ft
800 to 1500m
200 to 500 ft
< 800m
< 200 ft
Symbols :   Thunderstorms  Fog  Heavy snow  Heavy precipitations  Wind > 20 kt







- Airport Elevation : 4 ft
- IATA code : CTG


SKCG - Rafael Nuñez International

CURRENT METAR :
  • 250500Z 13004KT 9999 FEW015 SCT070 25/24 A2984

EXPIRED METARs :
  • 250400Z 02004KT 9999 FEW015 SCT070 27/25 A2985
  • 250300Z 04004KT 9999 FEW015 SCT070 26/24 A2987

TAF TAF SKCG
Valid from the 25 at 06:00 until the 26 at 06:00 UTC


250430Z 2506/2606 04005KT 9999 FEW020 SCT090
BECMG 2515/2517 36010KT
TEMPO 2519/2522 7000 TSRA SCT015CB BKN080
BECMG 2600/2602 03004KT TX33/2518Z TN26/2511Z
No reported NOTAMs for that airfield.



MET'MAP, your aeronautical weather chart ! - Copyright ORBIFLY December 2007 - Disclaimer

ORBIFLY MET'MAP TEAM :

Programming & Development : Alexandra Zaïnal
Concept & Development : Baudouin d'Aumeries
Co-Development & Prog : Marc-Olivier Méhu
Technical & hardware support : Manuel Goepfert

Contact : metmap@orbifly.com




SOURCES & CREDITS :

   NOAA       Earth
Advisory